createdAt,value
2023-01-31T00:00:32.665Z,25.00
2023-01-31T00:05:56.568Z,16.20
2023-01-31T00:11:01.432Z,18.50
2023-01-31T00:16:05.879Z,19.70
2023-01-31T00:21:15.235Z,27.00
2023-01-31T00:26:21.857Z,18.10
2023-01-31T00:31:31.467Z,16.10
2023-01-31T00:36:37.607Z,26.10
2023-01-31T00:41:45.517Z,21.20
2023-01-31T00:46:51.890Z,14.50
2023-01-31T00:51:58.773Z,15.30
2023-01-31T00:57:02.912Z,24.80
2023-01-31T01:02:08.212Z,12.60
2023-01-31T01:07:12.282Z,14.00
2023-01-31T01:12:16.084Z,18.20
2023-01-31T01:17:19.949Z,17.00
2023-01-31T01:22:26.501Z,15.40
2023-01-31T01:27:31.802Z,11.60
2023-01-31T01:32:35.579Z,15.40
2023-01-31T01:37:39.444Z,16.40
2023-01-31T01:42:43.635Z,8.50
2023-01-31T01:47:51.597Z,15.10
2023-01-31T01:53:17.424Z,11.60
2023-01-31T01:59:03.098Z,10.50
2023-01-31T02:04:09.844Z,10.50
2023-01-31T02:09:22.909Z,11.30
2023-01-31T02:14:27.490Z,13.10
2023-01-31T02:19:46.197Z,12.40
2023-01-31T02:25:04.411Z,15.80
2023-01-31T02:30:20.127Z,8.60
2023-01-31T02:35:47.256Z,14.30
2023-01-31T02:41:19.720Z,15.60
2023-01-31T02:46:33.287Z,8.80
2023-01-31T02:51:42.345Z,11.60
2023-01-31T02:56:47.098Z,16.50
2023-01-31T03:02:00.300Z,16.90
2023-01-31T03:07:11.188Z,13.00
2023-01-31T03:13:11.220Z,12.80
2023-01-31T03:18:20.398Z,17.00
2023-01-31T03:23:30.096Z,15.40
2023-01-31T03:28:41.477Z,14.50
2023-01-31T03:33:49.302Z,9.60
2023-01-31T03:39:43.767Z,12.60
2023-01-31T03:45:39.111Z,13.80
2023-01-31T03:50:50.419Z,15.10
2023-01-31T03:56:18.012Z,14.50
2023-01-31T04:01:26.643Z,18.40
2023-01-31T04:06:30.762Z,11.70
2023-01-31T04:11:40.626Z,12.00
2023-01-31T04:16:44.589Z,12.50
2023-01-31T04:21:48.342Z,14.70
2023-01-31T04:26:52.076Z,17.60
2023-01-31T04:31:56.585Z,12.50
2023-01-31T04:37:00.657Z,14.10
2023-01-31T04:42:04.369Z,13.50
2023-01-31T04:47:09.018Z,13.50
2023-01-31T04:52:12.833Z,14.20
2023-01-31T04:57:16.869Z,12.20
2023-01-31T05:02:23.569Z,12.80
2023-01-31T05:07:27.751Z,16.00
2023-01-31T05:12:34.109Z,11.10
2023-01-31T05:17:38.240Z,20.10
2023-01-31T05:22:41.994Z,10.00
2023-01-31T05:27:45.737Z,15.60
2023-01-31T05:32:50.306Z,15.50
2023-01-31T05:37:55.249Z,11.30
2023-01-31T05:43:04.406Z,11.20
2023-01-31T05:48:08.437Z,10.30
2023-01-31T05:53:12.241Z,16.80
2023-01-31T05:58:16.597Z,17.00
2023-01-31T06:03:20.309Z,15.50
2023-01-31T06:08:24.217Z,15.10
2023-01-31T06:13:27.977Z,9.70
2023-01-31T06:18:31.958Z,10.70
2023-01-31T06:23:36.179Z,11.70
2023-01-31T06:28:40.188Z,11.60
2023-01-31T06:33:47.306Z,9.80
2023-01-31T06:38:53.013Z,11.90
2023-01-31T06:43:57.582Z,10.80
2023-01-31T06:49:01.790Z,11.20
2023-01-31T06:54:05.537Z,9.90
2023-01-31T06:59:10.328Z,8.30
2023-01-31T07:04:14.766Z,17.10
2023-01-31T07:09:18.923Z,11.50
2023-01-31T07:14:22.861Z,11.20
2023-01-31T07:19:27.182Z,12.10
2023-01-31T07:24:31.184Z,8.40
2023-01-31T07:29:38.173Z,14.00
2023-01-31T07:34:42.700Z,8.20
2023-01-31T07:39:46.420Z,16.80
2023-01-31T07:44:50.335Z,9.20
2023-01-31T07:49:54.057Z,10.10
2023-01-31T07:54:57.968Z,12.90
2023-01-31T08:00:01.749Z,12.30
2023-01-31T08:05:15.235Z,9.60
2023-01-31T08:10:20.226Z,13.40
2023-01-31T08:15:24.018Z,8.90
2023-01-31T08:20:27.891Z,11.60
2023-01-31T08:25:32.192Z,13.80
2023-01-31T08:30:40.764Z,12.70
2023-01-31T08:35:44.537Z,11.50
2023-01-31T08:40:48.527Z,10.90
2023-01-31T08:45:52.306Z,11.20
2023-01-31T08:50:56.097Z,12.00
2023-01-31T08:56:02.048Z,10.30
2023-01-31T09:01:14.349Z,11.70
2023-01-31T09:06:22.304Z,12.40
2023-01-31T09:11:30.795Z,12.40
2023-01-31T09:16:34.690Z,15.30
2023-01-31T09:21:38.676Z,9.70
2023-01-31T09:26:42.454Z,9.50
2023-01-31T09:31:47.446Z,9.90
2023-01-31T09:36:51.355Z,14.70
2023-01-31T09:42:03.683Z,11.30
2023-01-31T09:47:20.652Z,11.20
2023-01-31T09:52:24.573Z,12.60
2023-01-31T09:57:50.932Z,9.20
2023-01-31T10:03:13.053Z,13.00
2023-01-31T10:08:48.245Z,12.70
2023-01-31T10:14:18.042Z,13.10
2023-01-31T10:20:14.476Z,9.20
2023-01-31T10:26:09.556Z,13.30
2023-01-31T10:31:29.221Z,12.40
2023-01-31T10:36:56.190Z,12.10
2023-01-31T10:42:26.005Z,11.80
2023-01-31T10:47:42.063Z,14.90
2023-01-31T10:53:04.426Z,13.50
2023-01-31T10:58:16.745Z,9.60
2023-01-31T11:03:20.461Z,13.20
2023-01-31T11:08:51.468Z,13.60
2023-01-31T11:14:03.972Z,8.30
2023-01-31T11:24:23.944Z,13.60
2023-01-31T11:29:40.219Z,13.70
2023-01-31T11:34:57.279Z,7.50
2023-01-31T11:40:05.073Z,17.80
2023-01-31T11:45:24.194Z,9.90
2023-01-31T11:50:40.687Z,13.80
2023-01-31T11:55:48.587Z,11.70
2023-01-31T12:01:03.308Z,11.50
2023-01-31T12:06:09.872Z,10.20
2023-01-31T12:11:42.172Z,8.90
2023-01-31T12:16:47.775Z,5.50
2023-01-31T12:22:17.095Z,5.60
2023-01-31T12:28:13.331Z,8.40
2023-01-31T12:33:46.338Z,9.80
2023-01-31T12:51:30.267Z,7.90
2023-01-31T13:02:59.289Z,7.40
2023-01-31T13:08:18.523Z,8.10
2023-01-31T13:13:30.178Z,6.40
2023-01-31T13:18:35.881Z,9.30
2023-01-31T13:23:49.563Z,9.90
2023-01-31T13:29:01.279Z,9.50
2023-01-31T13:34:30.013Z,8.90
2023-01-31T13:39:39.908Z,8.10
2023-01-31T13:44:45.451Z,7.40
2023-01-31T13:50:02.343Z,8.70
2023-01-31T13:55:24.415Z,10.40
2023-01-31T14:00:41.971Z,11.10
2023-01-31T14:06:00.154Z,21.00
2023-01-31T14:11:26.911Z,15.50
2023-01-31T14:16:44.529Z,12.40
2023-01-31T14:22:20.766Z,13.70
2023-01-31T14:27:54.958Z,12.50
2023-01-31T14:33:12.899Z,12.30
2023-01-31T14:38:49.464Z,11.80
2023-01-31T14:44:15.248Z,13.60
2023-01-31T14:49:59.519Z,18.70
2023-01-31T15:01:24.352Z,11.60
2023-01-31T15:06:54.397Z,18.00
2023-01-31T15:18:22.483Z,12.20
2023-01-31T15:23:29.360Z,11.90
2023-01-31T15:28:40.652Z,15.50
2023-01-31T15:33:48.866Z,12.60
2023-01-31T15:38:59.059Z,9.90
2023-01-31T15:44:18.174Z,16.40
2023-01-31T15:49:40.367Z,13.60
2023-01-31T15:55:19.136Z,15.70
2023-01-31T16:00:40.292Z,15.60
2023-01-31T16:05:52.518Z,15.70
2023-01-31T16:11:08.791Z,10.70
2023-01-31T16:16:14.752Z,11.20
2023-01-31T16:21:52.158Z,16.80
2023-01-31T16:27:14.228Z,12.40
2023-01-31T16:32:29.618Z,14.30
2023-01-31T16:37:40.747Z,17.10
2023-01-31T16:42:46.230Z,15.90
2023-01-31T16:47:54.028Z,11.90
2023-01-31T16:53:15.299Z,13.60
2023-01-31T16:59:08.988Z,14.90
2023-01-31T17:04:34.354Z,12.70
2023-01-31T17:09:39.654Z,18.70
2023-01-31T17:14:44.831Z,15.90
2023-01-31T17:19:49.270Z,15.90
2023-01-31T17:25:18.872Z,18.10
2023-01-31T17:30:53.860Z,19.50
2023-01-31T17:36:22.164Z,14.70
2023-01-31T17:41:37.555Z,13.90
2023-01-31T17:46:45.120Z,11.30
2023-01-31T17:52:05.462Z,8.60
2023-01-31T17:57:34.524Z,6.20
2023-01-31T18:03:47.286Z,6.10
2023-01-31T18:09:19.496Z,5.60
2023-01-31T18:14:25.519Z,3.70
2023-01-31T18:19:45.635Z,6.40
2023-01-31T18:24:51.068Z,5.60
2023-01-31T18:30:01.053Z,5.40
2023-01-31T18:35:11.660Z,4.50
2023-01-31T18:40:20.334Z,7.90
2023-01-31T18:45:26.516Z,5.80
2023-01-31T18:50:33.008Z,6.30
2023-01-31T18:55:38.386Z,5.40
2023-01-31T19:00:45.768Z,6.60
2023-01-31T19:05:51.088Z,5.20
2023-01-31T19:10:57.158Z,8.00
2023-01-31T19:16:09.194Z,6.20
2023-01-31T19:21:17.984Z,9.50
2023-01-31T19:26:29.860Z,6.70
2023-01-31T19:31:38.102Z,6.80
2023-01-31T19:36:47.452Z,6.70
2023-01-31T19:42:00.590Z,6.60
2023-01-31T19:47:09.236Z,6.10
2023-01-31T19:52:17.203Z,7.90
2023-01-31T19:57:24.139Z,6.60
2023-01-31T20:02:32.588Z,9.80
2023-01-31T20:07:45.806Z,5.40
2023-01-31T20:12:51.191Z,9.40
2023-01-31T20:17:58.047Z,9.40
2023-01-31T20:23:09.416Z,5.70
2023-01-31T20:28:14.827Z,6.10
2023-01-31T20:33:22.641Z,6.30
2023-01-31T20:38:27.972Z,7.70
2023-01-31T20:43:36.626Z,7.60
2023-01-31T20:48:46.202Z,7.80
2023-01-31T20:53:56.537Z,6.70
2023-01-31T20:59:10.601Z,5.30
2023-01-31T21:04:20.658Z,9.30
2023-01-31T21:09:28.734Z,7.10
2023-01-31T21:14:38.054Z,5.20
2023-01-31T21:19:43.315Z,5.70
2023-01-31T21:24:47.460Z,6.30
2023-01-31T21:29:51.916Z,4.40
2023-01-31T21:34:56.304Z,5.70
2023-01-31T21:40:00.334Z,9.50
2023-01-31T21:45:04.941Z,6.50
2023-01-31T21:50:11.796Z,5.50
2023-01-31T21:55:17.249Z,6.10
2023-01-31T22:00:21.628Z,7.20
2023-01-31T22:05:25.736Z,5.80
2023-01-31T22:10:30.126Z,6.00
2023-01-31T22:15:35.774Z,8.00
2023-01-31T22:20:39.789Z,5.60
2023-01-31T22:25:43.688Z,4.50
2023-01-31T22:30:56.141Z,9.10
2023-01-31T22:36:00.596Z,7.40
2023-01-31T22:41:07.366Z,6.10
2023-01-31T22:46:17.671Z,5.30
2023-01-31T22:51:29.544Z,5.80
2023-01-31T22:56:39.030Z,2.80
2023-01-31T23:01:53.347Z,5.00
2023-01-31T23:07:04.612Z,4.20
2023-01-31T23:12:12.741Z,5.10
2023-01-31T23:17:42.710Z,6.30
2023-01-31T23:22:57.192Z,6.40
2023-01-31T23:28:03.365Z,7.30
2023-01-31T23:33:07.158Z,4.70
2023-01-31T23:38:11.473Z,5.40
2023-01-31T23:43:15.153Z,2.70
2023-01-31T23:48:19.797Z,3.80
2023-01-31T23:53:23.536Z,2.80
2023-01-31T23:58:27.262Z,5.30
